sensor_id;sensor_type;location;lat;lon;timestamp;pressure;altitude;pressure_sealevel;temperature;humidity
49341;BME280;35209;51.050;13.678;2024-01-15T00:02:57;148969.63;;;1.20;82.12
49341;BME280;35209;51.050;13.678;2024-01-15T00:07:59;148940.13;;;1.08;83.49
49341;BME280;35209;51.050;13.678;2024-01-15T00:13:01;148943.94;;;1.10;83.69
49341;BME280;35209;51.050;13.678;2024-01-15T00:18:03;148938.84;;;1.08;83.75
49341;BME280;35209;51.050;13.678;2024-01-15T00:23:05;148931.16;;;1.05;83.96
49341;BME280;35209;51.050;13.678;2024-01-15T00:28:06;148926.03;;;1.03;84.12
49341;BME280;35209;51.050;13.678;2024-01-15T00:33:08;148936.28;;;1.07;84.30
49341;BME280;35209;51.050;13.678;2024-01-15T00:38:13;148920.88;;;1.00;84.77
49341;BME280;35209;51.050;13.678;2024-01-15T00:43:14;148927.31;;;1.03;84.49
49341;BME280;35209;51.050;13.678;2024-01-15T00:48:16;148886.31;;;0.87;85.66
49341;BME280;35209;51.050;13.678;2024-01-15T00:53:18;148918.34;;;0.99;84.07
49341;BME280;35209;51.050;13.678;2024-01-15T00:58:21;148901.66;;;0.93;84.44
49341;BME280;35209;51.050;13.678;2024-01-15T01:03:23;148926.03;;;1.03;83.13
49341;BME280;35209;51.050;13.678;2024-01-15T01:08:25;148892.72;;;0.89;84.08
49341;BME280;35209;51.050;13.678;2024-01-15T01:13:26;148915.78;;;0.98;83.07
49341;BME280;35209;51.050;13.678;2024-01-15T01:18:28;148877.31;;;0.83;84.07
49341;BME280;35209;51.050;13.678;2024-01-15T01:23:30;148868.34;;;0.80;84.17
49341;BME280;35209;51.050;13.678;2024-01-15T01:28:32;148872.22;;;0.81;83.55
49341;BME280;35209;51.050;13.678;2024-01-15T01:33:34;148864.53;;;0.78;84.09
49341;BME280;35209;51.050;13.678;2024-01-15T01:38:37;148859.41;;;0.76;83.76
49341;BME280;35209;51.050;13.678;2024-01-15T01:43:39;148840.19;;;0.68;83.78
49341;BME280;35209;51.050;13.678;2024-01-15T01:48:40;148826.13;;;0.63;84.37
49341;BME280;35209;51.050;13.678;2024-01-15T01:53:44;148819.69;;;0.60;84.10
49341;BME280;35209;51.050;13.678;2024-01-15T01:58:47;148832.50;;;0.65;83.28
49341;BME280;35209;51.050;13.678;2024-01-15T02:03:49;148824.84;;;0.62;83.51
49341;BME280;35209;51.050;13.678;2024-01-15T02:08:51;148826.13;;;0.63;83.18
49341;BME280;35209;51.050;13.678;2024-01-15T02:13:53;148842.75;;;0.69;82.46
49341;BME280;35209;51.050;13.678;2024-01-15T02:18:55;148824.84;;;0.62;83.12
49341;BME280;35209;51.050;13.678;2024-01-15T02:23:57;148823.53;;;0.62;83.07
49341;BME280;35209;51.050;13.678;2024-01-15T02:28:59;148824.84;;;0.62;82.75
49341;BME280;35209;51.050;13.678;2024-01-15T02:34:01;148823.53;;;0.62;82.33
49341;BME280;35209;51.050;13.678;2024-01-15T02:39:03;148829.94;;;0.64;82.48
49341;BME280;35209;51.050;13.678;2024-01-15T02:44:05;148831.22;;;0.65;81.58
49341;BME280;35209;51.050;13.678;2024-01-15T02:49:06;148823.53;;;0.62;81.85
49341;BME280;35209;51.050;13.678;2024-01-15T02:54:08;148810.72;;;0.57;81.64
49341;BME280;35209;51.050;13.678;2024-01-15T02:59:10;148804.34;;;0.54;82.50
49341;BME280;35209;51.050;13.678;2024-01-15T03:04:12;148810.72;;;0.57;81.57
49341;BME280;35209;51.050;13.678;2024-01-15T03:09:14;148778.69;;;0.44;82.57
49341;BME280;35209;51.050;13.678;2024-01-15T03:14:16;148768.44;;;0.40;81.86
49341;BME280;35209;51.050;13.678;2024-01-15T03:19:17;148778.69;;;0.44;81.84
49341;BME280;35209;51.050;13.678;2024-01-15T03:24:19;148759.53;;;0.36;82.19
49341;BME280;35209;51.050;13.678;2024-01-15T03:29:21;148759.53;;;0.36;81.32
49341;BME280;35209;51.050;13.678;2024-01-15T03:34:23;148755.66;;;0.35;81.36
49341;BME280;35209;51.050;13.678;2024-01-15T03:39:25;148740.28;;;0.29;80.99
49341;BME280;35209;51.050;13.678;2024-01-15T03:44:27;148739.03;;;0.28;81.69
49341;BME280;35209;51.050;13.678;2024-01-15T03:49:29;148722.34;;;0.21;82.38
49341;BME280;35209;51.050;13.678;2024-01-15T03:54:30;148701.84;;;0.13;83.17
49341;BME280;35209;51.050;13.678;2024-01-15T03:59:32;148681.41;;;0.05;85.23
49341;BME280;35209;51.050;13.678;2024-01-15T04:04:34;148689.06;;;0.08;84.52
49341;BME280;35209;51.050;13.678;2024-01-15T04:09:36;148654.50;;;-0.06;86.04
49341;BME280;35209;51.050;13.678;2024-01-15T04:14:38;148673.72;;;0.02;84.93
49341;BME280;35209;51.050;13.678;2024-01-15T04:19:39;148663.47;;;-0.02;84.87
49341;BME280;35209;51.050;13.678;2024-01-15T04:24:45;148641.72;;;-0.11;85.52
49341;BME280;35209;51.050;13.678;2024-01-15T04:29:47;148649.41;;;-0.08;83.41
49341;BME280;35209;51.050;13.678;2024-01-15T04:34:49;148649.41;;;-0.08;83.61
49341;BME280;35209;51.050;13.678;2024-01-15T04:39:51;148640.44;;;-0.11;83.24
49341;BME280;35209;51.050;13.678;2024-01-15T04:44:54;148645.53;;;-0.09;82.60
49341;BME280;35209;51.050;13.678;2024-01-15T04:49:57;148630.19;;;-0.15;82.76
49341;BME280;35209;51.050;13.678;2024-01-15T04:54:59;148612.25;;;-0.22;82.25
49341;BME280;35209;51.050;13.678;2024-01-15T05:00:00;148593.09;;;-0.30;82.55
49341;BME280;35209;51.050;13.678;2024-01-15T05:05:02;148554.69;;;-0.45;82.83
49341;BME280;35209;51.050;13.678;2024-01-15T05:10:04;148558.53;;;-0.44;83.01
49341;BME280;35209;51.050;13.678;2024-01-15T05:15:07;148582.84;;;-0.34;83.02
49341;BME280;35209;51.050;13.678;2024-01-15T05:20:09;148567.47;;;-0.40;83.72
49341;BME280;35209;51.050;13.678;2024-01-15T05:25:11;148570.06;;;-0.39;83.70
49341;BME280;35209;51.050;13.678;2024-01-15T05:30:13;148602.06;;;-0.27;82.51
49341;BME280;35209;51.050;13.678;2024-01-15T05:35:15;148600.75;;;-0.27;81.90
49341;BME280;35209;51.050;13.678;2024-01-15T05:40:17;148576.44;;;-0.37;82.49
49341;BME280;35209;51.050;13.678;2024-01-15T05:45:19;148604.59;;;-0.26;81.12
49341;BME280;35209;51.050;13.678;2024-01-15T05:50:21;148593.09;;;-0.30;81.10
49341;BME280;35209;51.050;13.678;2024-01-15T05:55:23;148604.59;;;-0.26;80.90
49341;BME280;35209;51.050;13.678;2024-01-15T06:00:25;148604.59;;;-0.26;80.88
49341;BME280;35209;51.050;13.678;2024-01-15T06:05:27;148604.59;;;-0.26;80.77
49341;BME280;35209;51.050;13.678;2024-01-15T06:10:29;148612.25;;;-0.22;79.93
49341;BME280;35209;51.050;13.678;2024-01-15T06:15:30;148617.41;;;-0.20;80.00
49341;BME280;35209;51.050;13.678;2024-01-15T06:20:32;148654.50;;;-0.06;78.03
49341;BME280;35209;51.050;13.678;2024-01-15T06:25:34;148644.25;;;-0.10;78.47
49341;BME280;35209;51.050;13.678;2024-01-15T06:30:36;148635.34;;;-0.13;78.01
49341;BME280;35209;51.050;13.678;2024-01-15T06:35:38;148646.88;;;-0.09;77.55
49341;BME280;35209;51.050;13.678;2024-01-15T06:40:40;148641.72;;;-0.11;78.23
49341;BME280;35209;51.050;13.678;2024-01-15T06:45:46;148643.00;;;-0.10;77.89
49341;BME280;35209;51.050;13.678;2024-01-15T06:50:48;148645.53;;;-0.09;77.81
49341;BME280;35209;51.050;13.678;2024-01-15T06:55:50;148639.16;;;-0.12;77.36
49341;BME280;35209;51.050;13.678;2024-01-15T07:00:52;148637.88;;;-0.12;76.77
49341;BME280;35209;51.050;13.678;2024-01-15T07:05:54;148617.41;;;-0.20;77.37
49341;BME280;35209;51.050;13.678;2024-01-15T07:10:56;148637.88;;;-0.12;76.56
49341;BME280;35209;51.050;13.678;2024-01-15T07:15:58;148621.22;;;-0.19;76.65
49341;BME280;35209;51.050;13.678;2024-01-15T07:21:00;148627.66;;;-0.16;76.40
49341;BME280;35209;51.050;13.678;2024-01-15T07:26:03;148625.09;;;-0.17;76.25
49341;BME280;35209;51.050;13.678;2024-01-15T07:31:06;148641.72;;;-0.11;76.36
49341;BME280;35209;51.050;13.678;2024-01-15T07:36:08;148636.63;;;-0.13;77.04
49341;BME280;35209;51.050;13.678;2024-01-15T07:41:10;148614.84;;;-0.21;77.68
49341;BME280;35209;51.050;13.678;2024-01-15T07:46:12;148625.09;;;-0.17;77.33
49341;BME280;35209;51.050;13.678;2024-01-15T07:51:14;148613.56;;;-0.22;77.18
49341;BME280;35209;51.050;13.678;2024-01-15T07:56:16;148613.56;;;-0.22;76.74
49341;BME280;35209;51.050;13.678;2024-01-15T08:01:18;148623.78;;;-0.18;76.45
49341;BME280;35209;51.050;13.678;2024-01-15T08:06:20;148637.88;;;-0.12;76.17
49341;BME280;35209;51.050;13.678;2024-01-15T08:11:22;148643.00;;;-0.10;76.27
49341;BME280;35209;51.050;13.678;2024-01-15T08:16:24;148623.78;;;-0.18;76.60
49341;BME280;35209;51.050;13.678;2024-01-15T08:21:26;148639.16;;;-0.12;75.51
49341;BME280;35209;51.050;13.678;2024-01-15T08:26:31;148635.34;;;-0.13;75.55
49341;BME280;35209;51.050;13.678;2024-01-15T08:31:36;148639.16;;;-0.12;75.78
49341;BME280;35209;51.050;13.678;2024-01-15T08:36:39;148627.66;;;-0.16;76.18
49341;BME280;35209;51.050;13.678;2024-01-15T08:41:42;148644.25;;;-0.10;75.61
49341;BME280;35209;51.050;13.678;2024-01-15T08:46:44;148645.53;;;-0.09;75.76
49341;BME280;35209;51.050;13.678;2024-01-15T08:51:45;148645.53;;;-0.09;75.62
49341;BME280;35209;51.050;13.678;2024-01-15T08:56:47;148660.94;;;-0.03;75.00
49341;BME280;35209;51.050;13.678;2024-01-15T09:01:50;148680.13;;;0.05;74.28
49341;BME280;35209;51.050;13.678;2024-01-15T09:06:52;148673.72;;;0.02;74.91
49341;BME280;35209;51.050;13.678;2024-01-15T09:11:54;148686.50;;;0.07;73.73
49341;BME280;35209;51.050;13.678;2024-01-15T09:16:56;148733.88;;;0.26;72.90
49341;BME280;35209;51.050;13.678;2024-01-15T09:21:58;148737.75;;;0.28;72.88
49341;BME280;35209;51.050;13.678;2024-01-15T09:27:01;148742.84;;;0.30;72.78
49341;BME280;35209;51.050;13.678;2024-01-15T09:32:03;148754.38;;;0.34;71.80
49341;BME280;35209;51.050;13.678;2024-01-15T09:37:05;148776.16;;;0.43;71.40
49341;BME280;35209;51.050;13.678;2024-01-15T09:42:08;148813.31;;;0.58;71.21
49341;BME280;35209;51.050;13.678;2024-01-15T09:47:10;148801.75;;;0.53;71.13
49341;BME280;35209;51.050;13.678;2024-01-15T09:52:14;148849.16;;;0.72;69.85
49341;BME280;35209;51.050;13.678;2024-01-15T09:57:17;148900.38;;;0.92;69.55
49341;BME280;35209;51.050;13.678;2024-01-15T10:02:20;148929.88;;;1.04;68.92
49341;BME280;35209;51.050;13.678;2024-01-15T10:07:22;148886.31;;;0.87;68.85
49341;BME280;35209;51.050;13.678;2024-01-15T10:12:25;148820.97;;;0.61;69.83
49341;BME280;35209;51.050;13.678;2024-01-15T10:17:29;148814.59;;;0.58;69.93
49341;BME280;35209;51.050;13.678;2024-01-15T10:22:32;148851.72;;;0.73;70.22
49341;BME280;35209;51.050;13.678;2024-01-15T10:27:34;148886.31;;;0.87;68.51
49341;BME280;35209;51.050;13.678;2024-01-15T10:32:36;148901.66;;;0.93;69.11
49341;BME280;35209;51.050;13.678;2024-01-15T10:37:38;148922.16;;;1.01;68.55
49341;BME280;35209;51.050;13.678;2024-01-15T10:42:39;148928.59;;;1.04;68.55
49341;BME280;35209;51.050;13.678;2024-01-15T10:47:43;148933.69;;;1.06;68.56
49341;BME280;35209;51.050;13.678;2024-01-15T10:52:45;148918.34;;;0.99;68.16
49341;BME280;35209;51.050;13.678;2024-01-15T10:57:48;148917.06;;;0.99;67.96
49341;BME280;35209;51.050;13.678;2024-01-15T11:02:51;148927.31;;;1.03;67.90
49341;BME280;35209;51.050;13.678;2024-01-15T11:07:58;149009.31;;;1.36;67.13
49341;BME280;35209;51.050;13.678;2024-01-15T11:13:02;149040.09;;;1.48;66.64
49341;BME280;35209;51.050;13.678;2024-01-15T11:18:04;149010.59;;;1.36;66.56
49341;BME280;35209;51.050;13.678;2024-01-15T11:23:07;149028.56;;;1.43;66.53
49341;BME280;35209;51.050;13.678;2024-01-15T11:28:49;149022.13;;;1.41;65.84
49341;BME280;35209;51.050;13.678;2024-01-15T11:33:50;149026.00;;;1.42;66.08
49341;BME280;35209;51.050;13.678;2024-01-15T11:38:53;149069.59;;;1.60;66.07
49341;BME280;35209;51.050;13.678;2024-01-15T11:43:54;149211.88;;;2.16;64.25
49341;BME280;35209;51.050;13.678;2024-01-15T11:49:03;149115.72;;;1.78;64.89
49341;BME280;35209;51.050;13.678;2024-01-15T11:54:08;149091.38;;;1.68;65.21
49341;BME280;35209;51.050;13.678;2024-01-15T11:59:12;149081.13;;;1.64;66.18
49341;BME280;35209;51.050;13.678;2024-01-15T12:04:14;149056.72;;;1.55;66.45
49341;BME280;35209;51.050;13.678;2024-01-15T12:09:19;149052.91;;;1.53;66.49
49341;BME280;35209;51.050;13.678;2024-01-15T12:14:22;149037.53;;;1.47;68.66
49341;BME280;35209;51.050;13.678;2024-01-15T12:19:23;149019.56;;;1.40;69.77
49341;BME280;35209;51.050;13.678;2024-01-15T12:24:25;148997.78;;;1.31;70.44
49341;BME280;35209;51.050;13.678;2024-01-15T12:29:27;149005.47;;;1.34;70.57
49341;BME280;35209;51.050;13.678;2024-01-15T12:34:29;148992.66;;;1.29;71.85
49341;BME280;35209;51.050;13.678;2024-01-15T12:39:34;148972.16;;;1.21;72.72
49341;BME280;35209;51.050;13.678;2024-01-15T12:44:36;148967.00;;;1.19;73.56
49341;BME280;35209;51.050;13.678;2024-01-15T12:49:39;148926.03;;;1.03;75.46
49341;BME280;35209;51.050;13.678;2024-01-15T12:54:41;148914.50;;;0.98;76.46
49341;BME280;35209;51.050;13.678;2024-01-15T12:59:44;148879.94;;;0.84;78.04
49341;BME280;35209;51.050;13.678;2024-01-15T13:04:46;148888.84;;;0.88;78.44
49341;BME280;35209;51.050;13.678;2024-01-15T13:09:48;148895.28;;;0.90;78.55
49341;BME280;35209;51.050;13.678;2024-01-15T13:14:55;148896.56;;;0.91;78.38
49341;BME280;35209;51.050;13.678;2024-01-15T13:19:57;148886.31;;;0.87;78.70
49341;BME280;35209;51.050;13.678;2024-01-15T13:25:00;148886.31;;;0.87;78.51
49341;BME280;35209;51.050;13.678;2024-01-15T13:30:03;148902.97;;;0.93;80.38
49341;BME280;35209;51.050;13.678;2024-01-15T13:35:05;148859.41;;;0.76;82.65
49341;BME280;35209;51.050;13.678;2024-01-15T13:40:11;148838.91;;;0.68;83.20
49341;BME280;35209;51.050;13.678;2024-01-15T13:45:18;148820.97;;;0.61;86.25
49341;BME280;35209;51.050;13.678;2024-01-15T13:50:22;148799.19;;;0.52;89.92
49341;BME280;35209;51.050;13.678;2024-01-15T13:55:26;148745.41;;;0.31;92.36
49341;BME280;35209;51.050;13.678;2024-01-15T14:00:28;148669.91;;;0.01;96.88
49341;BME280;35209;51.050;13.678;2024-01-15T14:05:30;148654.50;;;-0.06;98.73
49341;BME280;35209;51.050;13.678;2024-01-15T14:10:32;148655.78;;;-0.05;97.80
49341;BME280;35209;51.050;13.678;2024-01-15T14:15:35;148654.50;;;-0.06;98.70
49341;BME280;35209;51.050;13.678;2024-01-15T14:20:36;148616.13;;;-0.21;100.00
49341;BME280;35209;51.050;13.678;2024-01-15T14:25:38;148617.41;;;-0.20;100.00
49341;BME280;35209;51.050;13.678;2024-01-15T14:30:40;148628.91;;;-0.16;99.64
49341;BME280;35209;51.050;13.678;2024-01-15T14:35:42;148641.72;;;-0.11;99.54
49341;BME280;35209;51.050;13.678;2024-01-15T14:40:44;148595.66;;;-0.29;100.00
49341;BME280;35209;51.050;13.678;2024-01-15T14:45:46;148585.41;;;-0.33;100.00
49341;BME280;35209;51.050;13.678;2024-01-15T14:50:48;148576.44;;;-0.37;100.00
49341;BME280;35209;51.050;13.678;2024-01-15T14:55:52;148541.88;;;-0.51;100.00
49341;BME280;35209;51.050;13.678;2024-01-15T15:00:55;148549.59;;;-0.47;100.00
49341;BME280;35209;51.050;13.678;2024-01-15T15:05:57;148544.44;;;-0.49;100.00
49341;BME280;35209;51.050;13.678;2024-01-15T15:11:00;148521.41;;;-0.59;100.00
49341;BME280;35209;51.050;13.678;2024-01-15T15:16:02;148550.84;;;-0.47;100.00
49341;BME280;35209;51.050;13.678;2024-01-15T15:21:04;148561.09;;;-0.43;100.00
49341;BME280;35209;51.050;13.678;2024-01-15T15:26:06;148581.56;;;-0.35;100.00
49341;BME280;35209;51.050;13.678;2024-01-15T15:31:08;148600.75;;;-0.27;100.00
49341;BME280;35209;51.050;13.678;2024-01-15T15:36:10;148605.88;;;-0.25;99.43
49341;BME280;35209;51.050;13.678;2024-01-15T15:41:13;148602.06;;;-0.27;100.00
49341;BME280;35209;51.050;13.678;2024-01-15T15:46:16;148593.09;;;-0.30;100.00
49341;BME280;35209;51.050;13.678;2024-01-15T15:51:18;148595.66;;;-0.29;100.00
49341;BME280;35209;51.050;13.678;2024-01-15T15:56:20;148607.16;;;-0.24;100.00
49341;BME280;35209;51.050;13.678;2024-01-15T16:01:22;148626.38;;;-0.17;97.09
49341;BME280;35209;51.050;13.678;2024-01-15T16:06:24;148619.94;;;-0.19;97.20
49341;BME280;35209;51.050;13.678;2024-01-15T16:11:26;148614.84;;;-0.21;97.92
49341;BME280;35209;51.050;13.678;2024-01-15T16:16:27;148634.03;;;-0.14;98.17
49341;BME280;35209;51.050;13.678;2024-01-15T16:21:49;148648.13;;;-0.08;97.42
49341;BME280;35209;51.050;13.678;2024-01-15T16:27:11;148645.53;;;-0.09;96.77
49341;BME280;35209;51.050;13.678;2024-01-15T16:32:14;148641.72;;;-0.11;96.03
49341;BME280;35209;51.050;13.678;2024-01-15T16:37:16;148654.50;;;-0.06;98.60
49341;BME280;35209;51.050;13.678;2024-01-15T16:42:18;148675.00;;;0.03;95.09
49341;BME280;35209;51.050;13.678;2024-01-15T16:47:20;148655.78;;;-0.05;96.01
49341;BME280;35209;51.050;13.678;2024-01-15T16:52:21;148643.00;;;-0.10;98.65
49341;BME280;35209;51.050;13.678;2024-01-15T16:57:23;148635.34;;;-0.13;100.00
49341;BME280;35209;51.050;13.678;2024-01-15T17:02:25;148567.47;;;-0.40;100.00
49341;BME280;35209;51.050;13.678;2024-01-15T17:07:27;148590.50;;;-0.31;100.00
49341;BME280;35209;51.050;13.678;2024-01-15T17:12:29;148617.41;;;-0.20;100.00
49341;BME280;35209;51.050;13.678;2024-01-15T17:17:32;148621.22;;;-0.19;100.00
49341;BME280;35209;51.050;13.678;2024-01-15T17:22:33;148640.44;;;-0.11;99.03
49341;BME280;35209;51.050;13.678;2024-01-15T17:27:35;148682.69;;;0.06;95.54
49341;BME280;35209;51.050;13.678;2024-01-15T17:32:37;148686.50;;;0.07;93.36
49341;BME280;35209;51.050;13.678;2024-01-15T17:37:39;148705.72;;;0.15;91.70
49341;BME280;35209;51.050;13.678;2024-01-15T17:42:41;148694.22;;;0.10;91.78
49341;BME280;35209;51.050;13.678;2024-01-15T17:47:43;148682.69;;;0.06;92.59
49341;BME280;35209;51.050;13.678;2024-01-15T17:52:45;148659.66;;;-0.04;95.01
49341;BME280;35209;51.050;13.678;2024-01-15T17:57:47;148651.97;;;-0.07;99.02
49341;BME280;35209;51.050;13.678;2024-01-15T18:02:48;148646.88;;;-0.09;100.00
49341;BME280;35209;51.050;13.678;2024-01-15T18:07:51;148640.44;;;-0.11;100.00
49341;BME280;35209;51.050;13.678;2024-01-15T18:12:53;148618.69;;;-0.20;100.00
49341;BME280;35209;51.050;13.678;2024-01-15T18:17:54;148609.72;;;-0.23;100.00
49341;BME280;35209;51.050;13.678;2024-01-15T18:22:56;148604.59;;;-0.26;100.00
49341;BME280;35209;51.050;13.678;2024-01-15T18:27:58;148628.91;;;-0.16;100.00
49341;BME280;35209;51.050;13.678;2024-01-15T18:33:01;148628.91;;;-0.16;100.00
49341;BME280;35209;51.050;13.678;2024-01-15T18:38:04;148631.47;;;-0.15;100.00
49341;BME280;35209;51.050;13.678;2024-01-15T18:43:06;148646.88;;;-0.09;100.00
49341;BME280;35209;51.050;13.678;2024-01-15T18:48:08;148623.78;;;-0.18;100.00
49341;BME280;35209;51.050;13.678;2024-01-15T18:53:12;148587.94;;;-0.32;100.00
49341;BME280;35209;51.050;13.678;2024-01-15T18:58:15;148584.13;;;-0.34;100.00
49341;BME280;35209;51.050;13.678;2024-01-15T19:03:18;148584.13;;;-0.34;100.00
49341;BME280;35209;51.050;13.678;2024-01-15T19:08:20;148587.94;;;-0.32;100.00
49341;BME280;35209;51.050;13.678;2024-01-15T19:13:22;148596.91;;;-0.29;100.00
49341;BME280;35209;51.050;13.678;2024-01-15T19:18:24;148609.72;;;-0.23;100.00
49341;BME280;35209;51.050;13.678;2024-01-15T19:23:29;148586.66;;;-0.33;100.00
49341;BME280;35209;51.050;13.678;2024-01-15T19:28:31;148582.84;;;-0.34;100.00
49341;BME280;35209;51.050;13.678;2024-01-15T19:33:33;148577.72;;;-0.36;100.00
49341;BME280;35209;51.050;13.678;2024-01-15T19:38:40;148564.91;;;-0.41;100.00
49341;BME280;35209;51.050;13.678;2024-01-15T19:43:42;148558.53;;;-0.44;100.00
49341;BME280;35209;51.050;13.678;2024-01-15T19:48:43;148571.34;;;-0.39;100.00
49341;BME280;35209;51.050;13.678;2024-01-15T19:53:46;148559.81;;;-0.43;100.00
49341;BME280;35209;51.050;13.678;2024-01-15T19:58:48;148554.69;;;-0.45;100.00
49341;BME280;35209;51.050;13.678;2024-01-15T20:03:50;148585.41;;;-0.33;100.00
49341;BME280;35209;51.050;13.678;2024-01-15T20:08:52;148617.41;;;-0.20;100.00
49341;BME280;35209;51.050;13.678;2024-01-15T20:13:56;148650.69;;;-0.07;100.00
49341;BME280;35209;51.050;13.678;2024-01-15T20:18:59;148649.41;;;-0.08;100.00
49341;BME280;35209;51.050;13.678;2024-01-15T20:24:02;148644.25;;;-0.10;100.00
49341;BME280;35209;51.050;13.678;2024-01-15T20:29:05;148602.06;;;-0.27;100.00
49341;BME280;35209;51.050;13.678;2024-01-15T20:34:07;148628.91;;;-0.16;100.00
49341;BME280;35209;51.050;13.678;2024-01-15T20:39:09;148590.50;;;-0.31;100.00
49341;BME280;35209;51.050;13.678;2024-01-15T20:44:11;148600.75;;;-0.27;100.00
49341;BME280;35209;51.050;13.678;2024-01-15T20:49:13;148618.69;;;-0.20;100.00
49341;BME280;35209;51.050;13.678;2024-01-15T20:54:16;148603.34;;;-0.26;100.00
49341;BME280;35209;51.050;13.678;2024-01-15T20:59:17;148575.16;;;-0.37;100.00
49341;BME280;35209;51.050;13.678;2024-01-15T21:04:19;148571.34;;;-0.39;100.00
49341;BME280;35209;51.050;13.678;2024-01-15T21:09:23;148548.31;;;-0.48;100.00
49341;BME280;35209;51.050;13.678;2024-01-15T21:14:31;148545.72;;;-0.49;100.00
49341;BME280;35209;51.050;13.678;2024-01-15T21:19:34;148572.59;;;-0.38;100.00
49341;BME280;35209;51.050;13.678;2024-01-15T21:24:37;148605.88;;;-0.25;100.00
49341;BME280;35209;51.050;13.678;2024-01-15T21:29:39;148645.53;;;-0.09;100.00
49341;BME280;35209;51.050;13.678;2024-01-15T21:34:41;148677.53;;;0.04;100.00
49341;BME280;35209;51.050;13.678;2024-01-15T21:39:43;148712.09;;;0.17;100.00
49341;BME280;35209;51.050;13.678;2024-01-15T21:44:45;148698.03;;;0.12;100.00
49341;BME280;35209;51.050;13.678;2024-01-15T21:49:47;148685.25;;;0.07;100.00
49341;BME280;35209;51.050;13.678;2024-01-15T21:54:49;148662.19;;;-0.03;100.00
49341;BME280;35209;51.050;13.678;2024-01-15T21:59:51;148672.44;;;0.02;100.00
49341;BME280;35209;51.050;13.678;2024-01-15T22:04:53;148690.34;;;0.09;100.00
49341;BME280;35209;51.050;13.678;2024-01-15T22:09:55;148717.25;;;0.19;100.00
49341;BME280;35209;51.050;13.678;2024-01-15T22:14:56;148673.72;;;0.02;100.00
49341;BME280;35209;51.050;13.678;2024-01-15T22:19:58;148654.50;;;-0.06;100.00
49341;BME280;35209;51.050;13.678;2024-01-15T22:25:01;148576.44;;;-0.37;100.00
49341;BME280;35209;51.050;13.678;2024-01-15T22:30:03;148553.41;;;-0.46;100.00
49341;BME280;35209;51.050;13.678;2024-01-15T22:35:07;148603.34;;;-0.26;100.00
49341;BME280;35209;51.050;13.678;2024-01-15T22:40:09;148628.91;;;-0.16;100.00
49341;BME280;35209;51.050;13.678;2024-01-15T22:45:11;148644.25;;;-0.10;100.00
49341;BME280;35209;51.050;13.678;2024-01-15T22:50:17;148605.88;;;-0.25;100.00
49341;BME280;35209;51.050;13.678;2024-01-15T22:55:19;148600.75;;;-0.27;100.00
49341;BME280;35209;51.050;13.678;2024-01-15T23:00:21;148580.31;;;-0.35;100.00
49341;BME280;35209;51.050;13.678;2024-01-15T23:05:25;148594.38;;;-0.30;100.00
49341;BME280;35209;51.050;13.678;2024-01-15T23:10:27;148613.56;;;-0.22;100.00
49341;BME280;35209;51.050;13.678;2024-01-15T23:15:29;148649.41;;;-0.08;100.00
49341;BME280;35209;51.050;13.678;2024-01-15T23:20:32;148668.63;;;0.00;96.12
49341;BME280;35209;51.050;13.678;2024-01-15T23:25:34;148669.91;;;0.01;95.15
49341;BME280;35209;51.050;13.678;2024-01-15T23:30:36;148675.00;;;0.03;92.26
49341;BME280;35209;51.050;13.678;2024-01-15T23:35:38;148673.72;;;0.02;91.67
49341;BME280;35209;51.050;13.678;2024-01-15T23:40:40;148671.19;;;0.01;90.46
49341;BME280;35209;51.050;13.678;2024-01-15T23:45:41;148634.03;;;-0.14;91.73
49341;BME280;35209;51.050;13.678;2024-01-15T23:50:43;148650.69;;;-0.07;94.47
49341;BME280;35209;51.050;13.678;2024-01-15T23:55:45;148605.88;;;-0.25;96.83
